Time;durP1;ratioP1;P1;durP2;ratioP2;P2;SDS_P1;SDS_P2;PMS_P1;PMS_P2;Temp;Humidity;BMP_temperature;BMP_pressure;BME280_temperature;BME280_humidity;BME280_pressure;Samples;Min_cycle;Max_cycle;Signal;HPM_P1;HPM_P2
2023/07/20 00:01:05;;;;;;;;;5.25;4.00;;;;;19.65;53.00;101091.84;5038761;28;51786;-67
2023/07/20 00:03:31;;;;;;;;;3.25;3.00;;;;;19.60;53.42;101086.81;5034834;28;45456;-67
2023/07/20 00:05:56;;;;;;;;;6.00;5.00;;;;;19.57;53.54;101089.66;5035834;28;54777;-67
2023/07/20 00:08:21;;;;;;;;;3.25;3.25;;;;;19.53;53.35;101088.13;5029680;28;45577;-67
2023/07/20 00:10:47;;;;;;;;;4.25;3.00;;;;;19.53;53.07;101091.63;5032497;28;45459;-67
2023/07/20 00:13:13;;;;;;;;;3.50;3.00;;;;;19.50;53.70;101090.94;5037363;28;45404;-67
2023/07/20 00:15:38;;;;;;;;;8.25;3.00;;;;;19.47;53.66;101088.47;5034509;28;45364;-67
2023/07/20 00:18:04;;;;;;;;;5.25;3.25;;;;;19.40;53.88;101085.31;5017365;28;45498;-67
2023/07/20 00:20:30;;;;;;;;;6.25;5.25;;;;;19.44;54.16;101092.16;5031882;28;46168;-67
2023/07/20 00:22:57;;;;;;;;;6.25;4.75;;;;;19.42;53.49;101088.72;5035256;28;45292;-67
2023/07/20 00:25:25;;;;;;;;;6.00;3.25;;;;;19.39;54.14;101096.00;5023348;28;45237;-67
2023/07/20 00:27:51;;;;;;;;;5.00;1.00;;;;;19.34;54.18;101091.00;5032428;28;45470;-67
2023/07/20 00:30:16;;;;;;;;;5.00;3.00;;;;;19.37;54.06;101095.25;5032250;28;52348;-67
2023/07/20 00:32:42;;;;;;;;;7.25;5.25;;;;;19.35;54.48;101090.91;5032218;28;45336;-67
2023/07/20 00:35:08;;;;;;;;;6.25;4.00;;;;;19.31;54.51;101092.00;5022387;28;45416;-67
2023/07/20 00:37:33;;;;;;;;;5.00;4.00;;;;;19.31;54.73;101091.16;5016511;28;45514;-67
2023/07/20 00:39:59;;;;;;;;;6.50;5.00;;;;;19.28;54.83;101096.63;5030746;28;67075;-67
2023/07/20 00:42:24;;;;;;;;;4.00;2.75;;;;;19.25;54.48;101092.38;5037250;28;68483;-67
2023/07/20 00:44:49;;;;;;;;;5.75;4.00;;;;;19.25;54.90;101091.53;5026472;28;65182;-67
2023/07/20 00:47:15;;;;;;;;;5.00;3.25;;;;;19.26;54.60;101103.84;5035837;28;52940;-67
2023/07/20 00:49:40;;;;;;;;;4.25;3.25;;;;;19.23;54.33;101088.09;5039264;28;45492;-67
2023/07/20 00:52:07;;;;;;;;;3.00;3.00;;;;;19.23;55.40;101091.63;5038953;28;45460;-67
2023/07/20 00:54:32;;;;;;;;;4.00;3.25;;;;;19.20;55.27;101090.94;5033672;28;45288;-67
2023/07/20 00:56:59;;;;;;;;;4.50;3.00;;;;;19.13;55.13;101079.81;5020088;28;45258;-67
2023/07/20 00:59:25;;;;;;;;;4.50;4.00;;;;;19.16;55.24;101082.31;5022406;28;47133;-67
2023/07/20 01:01:50;;;;;;;;;6.25;5.00;;;;;19.15;54.89;101080.56;5022110;28;45440;-67
2023/07/20 01:04:15;;;;;;;;;4.00;4.00;;;;;19.14;54.98;101081.50;5028980;28;55166;-67
2023/07/20 01:06:58;;;;;;;;;7.00;4.75;;;;;19.14;55.26;101089.47;5038230;28;53733;-67
2023/07/20 01:09:32;;;;;;;;;5.50;3.50;;;;;19.12;55.03;101086.94;5034289;28;45395;-67
2023/07/20 01:12:07;;;;;;;;;4.00;3.00;;;;;19.11;55.36;101085.19;5031069;28;45518;-67
2023/07/20 01:14:34;;;;;;;;;4.00;4.00;;;;;19.09;55.46;101084.44;5025014;28;45275;-67
2023/07/20 01:16:59;;;;;;;;;8.25;5.00;;;;;19.12;55.67;101081.63;5013799;28;45459;-67
2023/07/20 01:19:24;;;;;;;;;3.00;2.00;;;;;19.10;55.63;101079.97;5030667;28;61012;-67
2023/07/20 01:21:56;;;;;;;;;6.25;4.50;;;;;19.08;55.61;101077.41;5037518;28;71987;-67
2023/07/20 01:24:42;;;;;;;;;5.00;4.00;;;;;19.11;55.45;101085.19;5028108;28;45205;-67
2023/07/20 01:27:36;;;;;;;;;3.25;3.25;;;;;19.12;55.83;101080.75;5036369;28;45386;-67
2023/07/20 01:30:10;;;;;;;;;4.00;3.75;;;;;19.12;55.17;101078.97;5028722;28;46672;-68
2023/07/20 01:32:36;;;;;;;;;4.00;2.75;;;;;19.10;55.60;101064.91;5032005;28;45559;-67
2023/07/20 01:35:02;;;;;;;;;5.00;3.50;;;;;19.09;55.61;101073.84;5033070;28;51850;-67
2023/07/20 01:37:30;;;;;;;;;6.00;4.00;;;;;19.08;55.28;101072.09;5037010;28;45464;-67
2023/07/20 01:39:56;;;;;;;;;5.00;3.25;;;;;19.08;56.05;101066.81;5025558;28;46606;-67
2023/07/20 01:42:23;;;;;;;;;6.50;4.00;;;;;19.07;55.75;101069.53;5036188;28;45383;-67
2023/07/20 01:44:51;;;;;;;;;8.75;5.00;;;;;19.04;55.90;101059.13;5031883;28;45511;-67
2023/07/20 01:47:16;;;;;;;;;4.50;4.25;;;;;19.08;55.62;101064.16;5035126;28;45552;-67
2023/07/20 01:49:42;;;;;;;;;4.25;3.50;;;;;19.09;55.87;101067.69;5031179;28;58451;-67
2023/07/20 01:52:07;;;;;;;;;4.50;3.00;;;;;19.06;55.93;101068.69;5037575;28;45280;-67
2023/07/20 01:54:32;;;;;;;;;4.50;3.75;;;;;19.11;56.13;101065.78;5031887;28;51658;-67
2023/07/20 01:56:58;;;;;;;;;5.25;4.00;;;;;19.14;56.25;101065.59;5037147;28;49949;-67
2023/07/20 01:59:23;;;;;;;;;7.00;4.25;;;;;19.11;55.95;101056.03;5045794;28;68493;-67
2023/07/20 02:01:48;;;;;;;;;7.00;4.75;;;;;19.16;56.63;101061.06;5038757;28;45206;-67
2023/07/20 02:04:14;;;;;;;;;4.00;4.00;;;;;19.15;55.98;101059.34;5035074;28;45460;-67
2023/07/20 02:06:39;;;;;;;;;6.50;4.50;;;;;19.11;55.77;101049.88;5037434;28;48283;-67
2023/07/20 02:09:04;;;;;;;;;5.25;4.00;;;;;19.11;56.04;101053.38;5033167;28;63953;-67
2023/07/20 02:11:30;;;;;;;;;4.25;4.00;;;;;19.13;56.33;101055.94;5036241;28;45317;-67
2023/07/20 02:13:55;;;;;;;;;4.25;4.25;;;;;19.13;56.17;101055.94;5026405;28;45242;-67
2023/07/20 02:16:22;;;;;;;;;4.25;4.25;;;;;19.11;56.35;101050.72;5039691;28;45298;-67
2023/07/20 02:18:47;;;;;;;;;7.25;4.50;;;;;19.10;56.44;101045.50;5018977;28;47125;-67
2023/07/20 02:21:13;;;;;;;;;3.00;3.00;;;;;19.12;56.30;101038.28;5035142;28;69448;-67
2023/07/20 02:23:38;;;;;;;;;7.00;4.25;;;;;19.13;56.26;101048.81;5023515;28;45447;-67
2023/07/20 02:26:03;;;;;;;;;5.50;5.25;;;;;19.13;56.10;101045.31;5026497;28;67654;-67
2023/07/20 02:28:29;;;;;;;;;4.25;3.00;;;;;19.11;56.34;101037.44;5035827;28;69919;-67
2023/07/20 02:30:54;;;;;;;;;3.00;3.00;;;;;19.07;56.22;101048.31;5028100;28;60313;-67
2023/07/20 02:33:20;;;;;;;;;6.00;3.00;;;;;19.04;56.33;101044.06;5025534;28;60451;-67
2023/07/20 02:35:46;;;;;;;;;3.75;3.00;;;;;19.02;56.13;101043.28;5039169;28;45559;-67
2023/07/20 02:38:11;;;;;;;;;5.00;3.25;;;;;18.97;56.51;101046.19;5038006;28;60578;-67
2023/07/20 02:40:36;;;;;;;;;5.00;4.50;;;;;18.92;56.43;101044.75;5011869;28;67101;-67
2023/07/20 02:43:02;;;;;;;;;4.00;4.00;;;;;18.88;56.98;101046.72;5033073;28;65743;-67
2023/07/20 02:45:27;;;;;;;;;6.25;5.00;;;;;18.92;56.54;101055.38;5022086;28;45474;-67
2023/07/20 02:47:52;;;;;;;;;5.50;4.00;;;;;18.90;57.11;101052.81;5032861;28;71249;-67
2023/07/20 02:50:18;;;;;;;;;6.25;4.75;;;;;18.94;57.16;101062.28;5032039;28;62840;-67
2023/07/20 02:52:43;;;;;;;;;5.25;4.00;;;;;18.93;57.24;101052.63;5033374;28;54939;-67
2023/07/20 02:55:09;;;;;;;;;6.00;5.00;;;;;18.95;56.66;101058.69;5035788;28;45224;-67
2023/07/20 02:57:34;;;;;;;;;6.75;5.00;;;;;18.97;57.00;101055.97;5015265;28;47739;-67
2023/07/20 03:00:00;;;;;;;;;6.25;4.75;;;;;18.97;56.75;101050.66;5034139;28;45456;-67
2023/07/20 03:02:25;;;;;;;;;4.50;4.00;;;;;18.96;57.00;101049.81;5031760;28;55347;-67
2023/07/20 03:04:50;;;;;;;;;6.00;4.00;;;;;18.96;56.95;101048.94;5031576;28;45457;-67
2023/07/20 03:07:16;;;;;;;;;4.75;4.00;;;;;18.99;56.76;101047.94;5036839;28;66123;-67
2023/07/20 03:09:41;;;;;;;;;6.00;4.25;;;;;19.01;56.87;101060.13;5030928;28;68828;-67
2023/07/20 03:12:07;;;;;;;;;6.25;3.50;;;;;18.96;56.70;101051.59;5029284;28;45419;-68
2023/07/20 03:14:32;;;;;;;;;4.25;2.00;;;;;18.96;56.72;101051.59;5031983;28;45605;-67
2023/07/20 03:16:58;;;;;;;;;6.00;4.00;;;;;18.96;56.83;101051.59;5028648;28;68411;-67
2023/07/20 03:19:23;;;;;;;;;3.50;3.00;;;;;18.94;57.17;101051.69;5036370;28;45747;-67
2023/07/20 03:21:49;;;;;;;;;6.25;4.25;;;;;18.95;56.87;101050.75;5037995;28;45276;-67
2023/07/20 03:24:14;;;;;;;;;3.50;3.00;;;;;18.94;57.11;101045.53;5019552;28;45296;-67
2023/07/20 03:26:39;;;;;;;;;8.00;5.00;;;;;18.96;57.33;101049.81;5029337;28;64747;-67
2023/07/20 03:29:06;;;;;;;;;4.25;3.00;;;;;18.96;57.58;101057.78;5030184;28;45299;-67
2023/07/20 03:31:32;;;;;;;;;4.50;3.00;;;;;18.93;56.89;101044.69;5054392;28;45452;-67
2023/07/20 03:33:57;;;;;;;;;7.00;4.00;;;;;18.90;57.36;101041.34;5025725;28;45278;-67
2023/07/20 03:36:22;;;;;;;;;6.75;4.75;;;;;18.91;57.90;101048.34;5034304;28;66136;-67
2023/07/20 03:38:48;;;;;;;;;8.00;4.00;;;;;18.92;57.38;101052.72;5027887;28;60000;-67
2023/07/20 03:41:15;;;;;;;;;4.00;4.00;;;;;18.91;57.70;101053.66;5030852;28;45268;-67
2023/07/20 03:43:41;;;;;;;;;4.50;3.00;;;;;18.91;57.56;101061.59;5037513;28;45312;-67
2023/07/20 03:46:06;;;;;;;;;6.00;4.75;;;;;18.90;57.78;101062.56;5025498;28;50867;-67
2023/07/20 03:48:32;;;;;;;;;6.75;4.75;;;;;18.91;57.44;101053.66;5033473;28;45317;-67
2023/07/20 03:50:58;;;;;;;;;6.00;3.50;;;;;18.91;57.60;101056.28;5038281;28;45541;-67
2023/07/20 03:53:23;;;;;;;;;6.25;4.00;;;;;18.90;57.70;101052.81;5032847;28;45391;-67
2023/07/20 03:55:50;;;;;;;;;5.00;4.00;;;;;18.91;57.60;101057.19;5036869;28;77400;-67
2023/07/20 03:58:16;;;;;;;;;3.00;3.00;;;;;18.94;57.58;101051.69;5031849;28;45279;-67
2023/07/20 04:00:46;;;;;;;;;3.50;3.50;;;;;18.93;57.76;101044.69;5032516;28;45341;-67
2023/07/20 04:03:11;;;;;;;;;8.00;4.00;;;;;18.91;57.78;101049.22;5026862;28;45494;-67
2023/07/20 04:05:37;;;;;;;;;3.25;3.00;;;;;18.93;58.09;101057.09;5037310;28;46503;-67
2023/07/20 04:08:02;;;;;;;;;4.75;3.50;;;;;18.89;58.09;101047.56;5036454;28;67803;-67
2023/07/20 04:10:27;;;;;;;;;4.25;3.25;;;;;18.91;57.94;101049.22;5031428;28;45338;-67
2023/07/20 04:12:53;;;;;;;;;7.00;4.00;;;;;18.89;58.43;101044.94;5034170;28;45444;-67
2023/07/20 04:15:18;;;;;;;;;6.00;3.00;;;;;18.81;58.29;101040.03;5034917;28;65242;-67
2023/07/20 04:17:45;;;;;;;;;4.75;3.25;;;;;18.85;57.95;101046.06;5039139;28;55526;-67
2023/07/20 04:20:10;;;;;;;;;4.25;4.00;;;;;18.85;57.76;101046.06;5041534;28;45407;-67
2023/07/20 04:22:36;;;;;;;;;4.75;3.25;;;;;18.85;58.07;101041.59;5021291;28;45215;-67
2023/07/20 04:25:01;;;;;;;;;6.50;5.00;;;;;18.87;57.95;101039.72;5029026;28;46830;-67
2023/07/20 04:27:26;;;;;;;;;4.75;3.00;;;;;18.86;57.91;101043.31;5035136;28;45246;-67
2023/07/20 04:29:52;;;;;;;;;3.25;2.50;;;;;18.87;58.31;101037.06;5042084;28;45321;-67
2023/07/20 04:32:17;;;;;;;;;7.50;3.75;;;;;18.87;58.17;101047.66;5036626;28;45344;-67
2023/07/20 04:34:43;;;;;;;;;8.00;3.50;;;;;18.86;57.95;101038.00;5038850;28;58617;-67
2023/07/20 04:37:08;;;;;;;;;4.75;4.00;;;;;18.86;58.22;101045.97;5037829;28;45271;-67
2023/07/20 04:39:34;;;;;;;;;6.00;5.00;;;;;18.86;57.68;101043.31;5028142;28;52770;-67
2023/07/20 04:41:59;;;;;;;;;6.50;5.00;;;;;18.86;58.05;101037.16;5037789;28;45319;-67
2023/07/20 04:44:24;;;;;;;;;7.75;5.50;;;;;18.84;58.59;101042.56;5029836;28;70176;-67
2023/07/20 04:46:50;;;;;;;;;7.00;4.50;;;;;18.83;58.82;101043.47;5036281;28;53764;-67
2023/07/20 04:49:15;;;;;;;;;3.00;3.00;;;;;18.84;58.48;101042.56;5031236;28;67110;-68
2023/07/20 04:51:40;;;;;;;;;3.00;3.00;;;;;18.85;58.25;101038.94;5036634;28;45320;-67
2023/07/20 04:54:06;;;;;;;;;4.75;3.25;;;;;18.84;58.63;101034.59;5032920;28;45456;-67
2023/07/20 04:56:31;;;;;;;;;8.00;4.00;;;;;18.87;58.48;101036.22;5037465;28;68060;-67
2023/07/20 04:58:56;;;;;;;;;5.75;4.00;;;;;18.85;59.45;101035.44;5031049;28;64025;-67
2023/07/20 05:01:22;;;;;;;;;8.50;4.75;;;;;18.86;57.94;101045.97;5038439;28;45619;-67
2023/07/20 05:03:48;;;;;;;;;6.25;3.50;;;;;18.83;58.41;101042.63;5017462;28;48053;-67
2023/07/20 05:06:13;;;;;;;;;5.00;3.75;;;;;18.82;58.79;101051.53;5036453;28;65913;-67
2023/07/20 05:08:38;;;;;;;;;5.50;5.50;;;;;18.83;59.09;101046.13;5034619;28;69157;-67
2023/07/20 05:11:04;;;;;;;;;7.00;5.00;;;;;18.82;59.23;101038.25;5041246;28;54329;-67
2023/07/20 05:13:29;;;;;;;;;3.00;3.00;;;;;18.82;59.11;101044.41;5029297;28;45412;-67
2023/07/20 05:15:55;;;;;;;;;3.75;3.75;;;;;18.86;59.19;101051.28;5034413;28;45287;-67
2023/07/20 05:18:20;;;;;;;;;7.75;2.50;;;;;18.89;59.06;101039.63;5030073;28;45353;-67
2023/07/20 05:20:49;;;;;;;;;5.00;3.00;;;;;18.90;59.31;101051.97;5037515;28;45311;-67
2023/07/20 05:23:18;;;;;;;;;4.00;2.25;;;;;18.91;59.30;101051.00;5026537;28;46527;-67
2023/07/20 05:25:43;;;;;;;;;4.75;3.00;;;;;18.93;59.21;101055.28;5035963;28;45426;-67
2023/07/20 05:28:09;;;;;;;;;5.75;3.00;;;;;18.95;58.80;101055.19;5009464;28;45436;-67
2023/07/20 05:30:34;;;;;;;;;4.25;3.00;;;;;18.94;59.13;101054.31;5027263;28;45199;-67
2023/07/20 05:33:00;;;;;;;;;3.00;3.00;;;;;18.94;58.71;101062.28;5017410;28;47231;-67
2023/07/20 05:35:26;;;;;;;;;3.00;3.00;;;;;18.97;59.32;101063.91;5029356;28;65173;-67
2023/07/20 05:37:51;;;;;;;;;5.00;3.00;;;;;18.97;59.35;101064.78;5035122;28;45339;-67
2023/07/20 05:40:18;;;;;;;;;5.50;4.00;;;;;19.02;58.91;101069.81;5036130;28;62128;-67
2023/07/20 05:42:46;;;;;;;;;6.50;3.50;;;;;19.03;58.67;101068.00;5022499;28;46966;-67
2023/07/20 05:45:12;;;;;;;;;5.75;3.00;;;;;19.02;59.48;101061.03;5028971;28;45597;-67
2023/07/20 05:47:37;;;;;;;;;6.00;2.75;;;;;19.06;58.46;101066.03;5033795;28;45370;-67
2023/07/20 05:50:03;;;;;;;;;5.50;4.75;;;;;19.09;58.47;101065.03;5032825;28;68178;-67
2023/07/20 05:52:28;;;;;;;;;9.25;4.75;;;;;19.11;58.89;101058.69;5034968;28;46421;-67
2023/07/20 05:54:54;;;;;;;;;3.50;3.25;;;;;19.18;58.96;101063.66;5033895;28;45341;-67
2023/07/20 05:57:19;;;;;;;;;8.25;3.00;;;;;19.21;58.57;101051.06;5035873;28;63360;-67
2023/07/20 05:59:44;;;;;;;;;9.00;4.00;;;;;19.24;57.90;101053.50;5028434;28;66977;-68
2023/07/20 06:02:10;;;;;;;;;6.25;3.00;;;;;19.25;57.86;101049.06;5025252;28;47094;-67
2023/07/20 06:04:36;;;;;;;;;3.00;3.00;;;;;19.26;58.03;101048.13;5037184;28;45371;-67
2023/07/20 06:07:01;;;;;;;;;3.00;3.00;;;;;19.30;58.09;101061.13;5038157;28;45543;-67
2023/07/20 06:09:27;;;;;;;;;7.00;3.00;;;;;19.31;58.10;101054.84;5026541;28;45166;-67
2023/07/20 06:11:52;;;;;;;;;8.00;4.00;;;;;19.32;58.18;101051.28;5037457;28;45356;-67
2023/07/20 06:14:18;;;;;;;;;6.75;3.25;;;;;19.35;57.79;101047.56;5026637;28;45288;-67
2023/07/20 06:16:43;;;;;;;;;6.25;4.00;;;;;19.37;58.12;101045.69;5036585;28;45775;-68
2023/07/20 06:19:11;;;;;;;;;4.75;4.75;;;;;19.42;57.48;101048.06;5025010;28;45481;-67
2023/07/20 06:21:36;;;;;;;;;6.25;4.25;;;;;19.38;57.70;101052.69;5029130;28;46090;-67
2023/07/20 06:24:01;;;;;;;;;5.50;3.00;;;;;19.35;57.65;101055.53;5022901;28;45364;-67
2023/07/20 06:26:28;;;;;;;;;4.75;4.00;;;;;19.26;58.02;101051.63;5030384;28;45533;-67
2023/07/20 06:28:53;;;;;;;;;7.00;3.25;;;;;19.25;58.22;101063.19;5029862;28;45690;-67
2023/07/20 06:31:19;;;;;;;;;6.50;3.25;;;;;19.24;57.97;101057.97;5049005;28;48583;-67
2023/07/20 06:33:44;;;;;;;;;6.00;4.00;;;;;19.23;58.32;101064.19;5025108;28;53433;-67
2023/07/20 06:36:10;;;;;;;;;9.00;4.00;;;;;19.25;58.04;101062.34;5036036;28;45488;-67
2023/07/20 06:38:36;;;;;;;;;4.00;3.00;;;;;19.22;58.20;101051.91;5028170;28;45349;-66
2023/07/20 06:41:01;;;;;;;;;5.00;3.25;;;;;19.26;58.00;101051.63;5030346;28;45493;-68
2023/07/20 06:43:26;;;;;;;;;3.25;3.25;;;;;19.29;58.05;101051.44;5028310;28;67344;-66
2023/07/20 06:45:56;;;;;;;;;5.00;1.00;;;;;19.33;57.80;101057.41;5038010;28;45246;-66
2023/07/20 06:48:21;;;;;;;;;5.75;4.50;;;;;19.38;57.65;101055.34;5033814;28;45397;-66
2023/07/20 06:50:47;;;;;;;;;5.00;4.25;;;;;19.41;58.18;101051.69;5032672;28;45457;-67
2023/07/20 06:53:12;;;;;;;;;6.75;4.00;;;;;19.42;58.00;101048.06;5015679;28;45357;-67
2023/07/20 06:55:38;;;;;;;;;8.50;5.00;;;;;19.47;57.96;101043.34;5035725;28;45563;-66
2023/07/20 06:58:03;;;;;;;;;5.75;4.25;;;;;19.56;57.49;101048.09;5035200;28;55775;-67
2023/07/20 07:00:28;;;;;;;;;8.50;5.00;;;;;19.59;57.69;101057.69;5020946;28;75173;-67
2023/07/20 07:02:54;;;;;;;;;9.25;5.25;;;;;19.64;57.85;101047.66;5036755;28;68711;-67
2023/07/20 07:05:19;;;;;;;;;2.75;2.75;;;;;19.73;57.59;101055.06;5040080;28;45307;-66
2023/07/20 07:07:44;;;;;;;;;6.75;4.75;;;;;19.80;57.36;101044.97;5030984;28;45394;-67
2023/07/20 07:10:10;;;;;;;;;8.50;4.00;;;;;19.88;57.21;101047.97;5036779;28;59897;-67
2023/07/20 07:12:35;;;;;;;;;5.00;4.50;;;;;19.95;56.69;101051.13;5019981;28;70168;-67
2023/07/20 07:15:02;;;;;;;;;8.50;5.00;;;;;19.97;56.89;101036.78;5044778;28;65747;-67
2023/07/20 07:17:27;;;;;;;;;4.75;4.75;;;;;19.99;56.90;101036.69;5038108;28;45270;-67
2023/07/20 07:19:56;;;;;;;;;9.50;5.75;;;;;20.07;56.56;101035.28;5026223;28;45255;-67
2023/07/20 07:22:21;;;;;;;;;11.00;5.50;;;;;20.15;56.45;101032.16;5018760;28;45272;-67
2023/07/20 07:24:47;;;;;;;;;7.25;6.00;;;;;20.24;56.55;101039.56;5031295;28;45279;-67
2023/07/20 07:27:12;;;;;;;;;10.00;6.50;;;;;20.29;56.48;101036.59;5035322;28;45314;-67
2023/07/20 07:29:38;;;;;;;;;7.75;6.00;;;;;20.37;55.91;101039.63;5035578;28;46127;-66
2023/07/20 07:32:03;;;;;;;;;9.25;5.50;;;;;20.42;56.28;101042.00;5035068;28;45352;-66
2023/07/20 07:34:29;;;;;;;;;8.00;5.75;;;;;20.47;55.86;101038.09;5027172;28;45287;-67
2023/07/20 07:36:54;;;;;;;;;6.25;4.25;;;;;20.54;55.46;101043.00;5032907;28;57766;-67
2023/07/20 07:39:19;;;;;;;;;5.75;4.75;;;;;20.60;55.35;101042.63;5029094;28;46904;-67
2023/07/20 07:41:45;;;;;;;;;6.25;4.00;;;;;20.67;55.27;101043.97;5031954;28;67522;-67
2023/07/20 07:44:10;;;;;;;;;9.75;6.50;;;;;20.69;55.34;101039.41;5018318;28;45397;-67
2023/07/20 07:46:35;;;;;;;;;6.25;5.25;;;;;20.68;55.18;101043.00;5020319;28;45745;-67
2023/07/20 07:49:01;;;;;;;;;5.00;4.00;;;;;20.71;55.07;101048.13;5034961;28;73037;-67
2023/07/20 07:51:27;;;;;;;;;8.25;5.25;;;;;20.76;54.74;101046.03;5040565;28;61396;-67
2023/07/20 07:53:52;;;;;;;;;7.00;6.00;;;;;20.79;53.98;101050.31;5039953;28;45463;-66
2023/07/20 07:56:22;;;;;;;;;7.25;5.00;;;;;20.83;54.04;101038.50;5041570;28;45225;-67
2023/07/20 07:58:47;;;;;;;;;7.00;4.75;;;;;20.90;53.98;101038.97;5033094;28;48099;-67
2023/07/20 08:01:13;;;;;;;;;7.25;7.25;;;;;20.89;53.88;101042.56;5041473;28;45336;-67
2023/07/20 08:03:38;;;;;;;;;10.00;5.50;;;;;20.90;53.72;101037.16;5030251;28;45323;-67
2023/07/20 08:06:04;;;;;;;;;5.75;4.25;;;;;20.94;53.52;101035.97;5027032;28;66897;-67
2023/07/20 08:08:31;;;;;;;;;9.00;6.00;;;;;20.93;53.64;101038.75;5041094;28;45323;-67
2023/07/20 08:10:56;;;;;;;;;5.00;4.00;;;;;20.96;53.38;101035.88;5038791;28;45199;-67
2023/07/20 08:13:22;;;;;;;;;8.00;5.00;;;;;20.98;53.69;101034.84;5040247;28;58267;-67
2023/07/20 08:15:50;;;;;;;;;6.50;4.00;;;;;21.04;53.43;101038.91;5040178;28;45266;-67
2023/07/20 08:18:15;;;;;;;;;6.00;6.00;;;;;21.04;53.36;101031.75;5033094;28;46179;-67
2023/07/20 08:20:44;;;;;;;;;3.25;2.75;;;;;21.12;53.35;101035.72;5036995;28;72143;-67
2023/07/20 08:23:09;;;;;;;;;5.00;4.75;;;;;21.16;52.68;101032.75;5030082;28;45376;-67
2023/07/20 08:25:39;;;;;;;;;6.00;5.00;;;;;21.24;52.70;101027.75;5037986;28;52445;-67
2023/07/20 08:28:04;;;;;;;;;7.75;4.00;;;;;21.34;52.37;101032.50;5021070;28;46338;-67
2023/07/20 08:30:43;;;;;;;;;6.25;4.75;;;;;21.41;52.81;101031.97;5044422;28;45541;-67
2023/07/20 08:33:19;;;;;;;;;6.50;5.50;;;;;21.45;52.22;101029.09;5022139;28;45518;-67
2023/07/20 08:35:45;;;;;;;;;6.25;4.75;;;;;21.49;51.66;101023.47;5035313;28;45329;-67
2023/07/20 08:38:10;;;;;;;;;6.00;4.25;;;;;21.56;51.50;101024.75;5029999;28;46306;-67
2023/07/20 08:40:45;;;;;;;;;4.50;4.00;;;;;21.62;51.27;101028.84;5021026;28;45355;-67
2023/07/20 08:43:12;;;;;;;;;7.00;5.00;;;;;21.69;51.13;101019.47;5035798;28;45202;-67
2023/07/20 08:45:39;;;;;;;;;3.00;3.00;;;;;21.78;51.46;101010.81;5033039;28;45436;-67
2023/07/20 08:48:06;;;;;;;;;4.25;4.00;;;;;21.86;50.80;101012.94;5017819;28;48121;-67
2023/07/20 08:50:32;;;;;;;;;4.25;4.25;;;;;21.88;50.45;101011.00;5034609;28;45383;-67
2023/07/20 08:52:59;;;;;;;;;5.00;3.75;;;;;21.93;50.30;101008.88;5017925;28;45419;-67
2023/07/20 08:55:26;;;;;;;;;6.00;4.00;;;;;21.95;49.78;101006.09;5020570;28;45504;-67
2023/07/20 08:57:54;;;;;;;;;4.00;2.50;;;;;22.00;50.10;101009.31;5033325;28;45696;-67
2023/07/20 09:00:20;;;;;;;;;2.00;2.00;;;;;22.11;49.57;101006.72;5026352;28;45468;-67
2023/07/20 09:02:48;;;;;;;;;4.00;3.75;;;;;22.19;49.56;101006.19;5034318;28;45410;-67
2023/07/20 09:05:14;;;;;;;;;2.50;2.50;;;;;22.21;49.79;101004.25;5032345;28;45414;-67
2023/07/20 09:07:40;;;;;;;;;6.50;3.00;;;;;22.23;49.01;101007.66;5030854;28;46970;-67
2023/07/20 09:10:07;;;;;;;;;4.25;3.00;;;;;22.28;49.10;101010.03;5026506;28;45252;-67
2023/07/20 09:12:35;;;;;;;;;5.75;3.00;;;;;22.34;48.75;101012.25;5035063;28;45384;-67
2023/07/20 09:15:01;;;;;;;;;3.50;3.50;;;;;22.42;48.65;101006.38;5020411;28;45551;-67
2023/07/20 09:17:26;;;;;;;;;4.75;3.75;;;;;22.49;47.67;101004.97;5034314;28;47066;-67
2023/07/20 09:19:52;;;;;;;;;4.00;4.00;;;;;22.54;47.92;101008.13;5023622;28;45292;-67
2023/07/20 09:22:17;;;;;;;;;7.00;3.75;;;;;22.55;47.77;101001.84;5035699;28;66724;-67
2023/07/20 09:24:43;;;;;;;;;5.00;4.00;;;;;22.61;46.96;101001.41;5029988;28;68984;-67
2023/07/20 09:27:09;;;;;;;;;3.00;3.00;;;;;22.74;47.64;100999.50;5037926;28;45553;-67
2023/07/20 09:29:35;;;;;;;;;2.25;2.00;;;;;22.83;47.75;100997.13;5020263;28;45759;-67
2023/07/20 09:32:02;;;;;;;;;2.75;2.50;;;;;22.89;47.37;100997.50;5033624;28;45314;-67
2023/07/20 09:34:29;;;;;;;;;3.50;3.00;;;;;22.97;47.28;100999.63;5031304;28;45514;-67
2023/07/20 09:36:55;;;;;;;;;7.25;4.00;;;;;;;;5024356;28;47362;-68
2023/07/20 09:39:20;;;;;;;;;3.75;3.75;;;;;23.15;46.94;101002.75;5031267;28;45452;-67
2023/07/20 09:41:46;;;;;;;;;4.25;3.50;;;;;23.16;46.88;100996.44;5036802;28;45280;-67
2023/07/20 09:44:11;;;;;;;;;2.00;1.75;;;;;23.16;45.78;100993.78;5028761;28;70727;-67
2023/07/20 09:46:47;;;;;;;;;4.25;3.00;;;;;23.15;45.52;100991.22;5035510;28;45614;-67
2023/07/20 09:49:13;;;;;;;;;3.00;3.00;;;;;23.18;45.45;100997.19;5034382;28;45890;-67
2023/07/20 09:51:39;;;;;;;;;2.25;2.25;;;;;23.24;45.49;100994.03;5037372;28;45257;-67
2023/07/20 09:54:05;;;;;;;;;2.50;2.25;;;;;23.39;45.25;100989.34;5041841;28;45263;-67
2023/07/20 09:56:30;;;;;;;;;0.50;0.50;;;;;23.45;44.22;100975.50;5036360;28;46187;-67
2023/07/20 09:58:57;;;;;;;;;3.25;2.00;;;;;23.59;44.21;100979.78;5035812;28;66607;-67
2023/07/20 10:01:22;;;;;;;;;1.25;1.25;;;;;23.72;44.17;100979.66;5034428;28;45352;-68
2023/07/20 10:03:51;;;;;;;;;2.50;2.50;;;;;23.78;43.17;100976.53;5031109;28;45360;-68
2023/07/20 10:06:21;;;;;;;;;2.50;1.25;;;;;23.80;43.60;100976.41;5039492;28;45433;-68
2023/07/20 10:08:47;;;;;;;;;4.00;2.50;;;;;23.81;43.13;100973.63;5038400;28;45370;-68
2023/07/20 10:11:15;;;;;;;;;4.25;2.25;;;;;23.77;43.80;100971.28;5033469;28;58064;-68
2023/07/20 10:13:41;;;;;;;;;2.75;2.25;;;;;23.74;43.53;100976.88;5036461;28;45430;-69
2023/07/20 10:16:21;;;;;;;;;4.25;3.00;;;;;23.73;42.93;100964.47;5034037;28;66421;-68
2023/07/20 10:18:59;;;;;;;;;5.25;1.50;;;;;23.66;42.90;100972.97;5028653;28;45262;-69
2023/07/20 10:21:25;;;;;;;;;3.50;1.25;;;;;23.70;42.33;100963.75;5039650;28;45319;-69
2023/07/20 10:23:51;;;;;;;;;1.75;1.75;;;;;23.77;42.16;100966.78;5024477;28;50137;-69
2023/07/20 10:26:16;;;;;;;;;2.00;0.75;;;;;23.85;42.28;100972.41;5028767;28;71090;-68
2023/07/20 10:28:41;;;;;;;;;4.75;2.25;;;;;23.96;42.17;100962.69;5038282;28;45500;-67
2023/07/20 10:31:08;;;;;;;;;4.25;1.25;;;;;24.03;41.33;100959.41;5029666;28;45311;-68
2023/07/20 10:33:34;;;;;;;;;3.00;2.00;;;;;24.09;40.79;100949.19;5014340;28;45538;-68
2023/07/20 10:36:07;;;;;;;;;7.50;6.75;;;;;24.12;41.63;100941.78;5034933;28;75668;-68
2023/07/20 10:38:53;;;;;;;;;2.25;2.25;;;;;24.06;40.89;100935.09;5035212;28;45301;-67
2023/07/20 10:41:24;;;;;;;;;3.75;0.25;;;;;24.06;39.66;100939.56;5019312;28;45443;-68
2023/07/20 10:43:50;;;;;;;;;3.25;1.25;;;;;24.02;40.57;100938.97;5036017;28;45702;-68
2023/07/20 10:46:35;;;;;;;;;1.25;1.25;;;;;24.04;40.32;100933.50;5016348;28;46837;-68
2023/07/20 10:49:05;;;;;;;;;1.50;1.00;;;;;24.10;39.59;100933.03;5032912;28;45445;-67
2023/07/20 10:51:31;;;;;;;;;1.25;1.25;;;;;24.20;40.74;100939.31;5037043;28;45286;-68
2023/07/20 10:53:58;;;;;;;;;2.00;2.00;;;;;24.32;40.82;100937.47;5015055;28;45551;-68
2023/07/20 10:56:26;;;;;;;;;4.75;2.00;;;;;24.41;40.76;100944.72;5038572;28;46649;-67
2023/07/20 10:58:59;;;;;;;;;4.50;1.25;;;;;24.49;40.03;100933.41;5036537;28;45884;-67
2023/07/20 11:01:28;;;;;;;;;2.75;2.25;;;;;24.58;40.87;100930.00;5038545;28;45296;-68
2023/07/20 11:03:57;;;;;;;;;1.75;1.75;;;;;24.71;39.91;100934.31;5033122;28;45669;-68
2023/07/20 11:06:25;;;;;;;;;2.00;1.00;;;;;24.81;39.96;100937.94;5035247;28;48171;-68
2023/07/20 11:09:14;;;;;;;;;2.25;1.25;;;;;24.92;40.00;100940.53;5024563;28;45869;-68
2023/07/20 11:11:44;;;;;;;;;2.75;2.25;;;;;25.00;39.40;100926.50;5028305;28;45364;-68
2023/07/20 11:14:21;;;;;;;;;5.00;5.00;;;;;25.11;37.79;100925.59;5037181;28;45499;-68
2023/07/20 11:16:47;;;;;;;;;5.00;3.00;;;;;25.15;39.19;100924.34;5038221;28;47665;-68
2023/07/20 11:19:15;;;;;;;;;1.50;1.50;;;;;25.24;39.18;100930.75;5029857;28;45297;-68
2023/07/20 11:21:42;;;;;;;;;4.75;2.75;;;;;25.26;38.69;100915.44;5036752;28;45325;-68
2023/07/20 11:24:09;;;;;;;;;3.50;3.25;;;;;25.24;37.80;100920.88;5029770;28;45583;-68